Dover Foxcroft, Maine
Current Conditions -  °F | °C
As of 2:53 PM on Tuesday 21 Oct 2014 (Local Time) from KBGR Reporting Station
Light Rain Light Rain  
Wind Chill: 11°   Ceiling: 3800
Heat Index: 11°   Visibility: 5mi
Dew Point:   Wind: 7mph
Humidity: 69%   Direction: 60°ENE
Pressure: 30.08"   Gusts: NA
Location:  45.19°N, 69.23°W
Report Text: KBGR 211853Z 06006KT 5SM -RA BKN038 OVC055 11/06 A3008 RMK AO2 RAB41 SLP186 P0001 T01110056
Loading
Personal Weather Stations






























Interactive Weather Map
Tropical Storm Tracking
New forecast layout! Learn more

10-Day Weather Forecast

Advertisements
Track Severe Weather on mobile